Time;durP1;ratioP1;P1;durP2;ratioP2;P2;SDS_P1;SDS_P2;PMS_P1;PMS_P2;Temp;Humidity;BMP_temperature;BMP_pressure;BME280_temperature;BME280_humidity;BME280_pressure;Samples;Min_cycle;Max_cycle;Signal;HPM_P1;HPM_P2
2022/10/15 00:01:32;;;;;;;20.08;10.60;;;;;;;9.90;100.00;97859.47;4957184;28;20038;-81
2022/10/15 00:04:01;;;;;;;22.65;10.45;;;;;;;10.05;100.00;97878.25;4972683;28;20057;-81
2022/10/15 00:06:27;;;;;;;20.50;11.70;;;;;;;10.14;100.00;97871.69;4989105;28;20362;-81
2022/10/15 00:08:52;;;;;;;20.23;11.02;;;;;;;10.11;100.00;97856.38;4990880;28;20045;-81
2022/10/15 00:11:21;;;;;;;22.95;11.10;;;;;;;10.17;100.00;97853.91;4973284;28;20026;-80
2022/10/15 00:13:48;;;;;;;19.40;10.43;;;;;;;10.27;100.00;97865.47;4971767;28;20046;-81
2022/10/15 00:16:17;;;;;;;19.77;10.27;;;;;;;10.28;100.00;97853.16;4957068;28;20038;-81
2022/10/15 00:18:43;;;;;;;21.63;11.05;;;;;;;10.30;100.00;97859.00;4956934;28;20080;-80
2022/10/15 00:21:13;;;;;;;18.90;10.75;;;;;;;10.25;100.00;97835.25;4990085;28;20058;-81
2022/10/15 00:23:40;;;;;;;16.98;10.05;;;;;;;10.26;100.00;97844.72;4957477;28;20029;-81
2022/10/15 00:26:12;;;;;;;18.33;10.35;;;;;;;10.31;100.00;97839.59;4976851;28;20508;-81
2022/10/15 00:28:38;;;;;;;19.65;10.40;;;;;;;10.27;100.00;97833.22;4976963;28;20167;-81
2022/10/15 00:31:10;;;;;;;18.80;11.43;;;;;;;10.34;100.00;97826.03;4976520;28;20109;-80
2022/10/15 00:33:36;;;;;;;23.88;12.10;;;;;;;10.23;100.00;97801.38;4993584;28;20038;-81
2022/10/15 00:36:06;;;;;;;24.23;14.63;;;;;;;10.30;100.00;97801.28;4976925;28;20034;-81
2022/10/15 00:38:32;;;;;;;23.80;14.18;;;;;;;10.26;100.00;97808.00;4977592;28;20061;-81
2022/10/15 00:40:59;;;;;;;23.50;13.40;;;;;;;10.12;100.00;97789.00;4961293;28;20042;-81
2022/10/15 00:43:38;;;;;;;25.27;14.25;;;;;;;10.02;100.00;97786.91;4961369;28;20399;-82
2022/10/15 00:46:05;;;;;;;26.17;14.20;;;;;;;10.08;100.00;97796.53;4994509;28;20022;-81
2022/10/15 00:48:31;;;;;;;31.20;16.40;;;;;;;10.03;100.00;97785.91;4993873;28;20128;-80
2022/10/15 00:51:02;;;;;;;35.10;16.77;;;;;;;10.07;100.00;97781.00;4961271;28;20026;-82
2022/10/15 00:53:28;;;;;;;47.97;20.52;;;;;;;10.15;100.00;97783.34;4977298;28;20037;-82
2022/10/15 00:55:54;;;;;;;40.88;19.40;;;;;;;10.11;100.00;97788.22;4994947;28;20026;-81
2022/10/15 00:58:26;;;;;;;43.03;19.88;;;;;;;10.24;100.00;97796.94;4977376;28;22384;-81
2022/10/15 01:00:55;;;;;;;43.57;20.63;;;;;;;10.24;100.00;97796.94;4976309;28;20121;-81
2022/10/15 01:03:22;;;;;;;50.38;23.13;;;;;;;10.31;100.00;97809.94;4975926;28;20284;-80
2022/10/15 01:05:50;;;;;;;47.00;20.85;;;;;;;10.35;100.00;97803.25;4976501;28;20038;-81
2022/10/15 01:09:05;;;;;;;46.65;21.35;;;;;;;10.27;100.00;97791.25;4975792;28;20034;-81
2022/10/15 01:11:49;;;;;;;46.20;19.17;;;;;;;10.37;100.00;97785.47;4976468;28;20448;-80
2022/10/15 01:14:37;;;;;;;37.83;18.65;;;;;;;10.54;100.00;97783.81;4975664;28;20038;-82
2022/10/15 01:17:33;;;;;;;40.28;18.75;;;;;;;10.56;100.00;97784.41;4993744;28;20030;-81
2022/10/15 01:20:08;;;;;;;32.85;16.02;;;;;;;10.56;100.00;97789.66;4993483;28;20111;-81
2022/10/15 01:22:52;;;;;;;39.75;18.20;;;;;;;10.62;100.00;97776.63;4975529;28;20053;-82
2022/10/15 01:25:27;;;;;;;37.40;17.35;;;;;;;10.59;100.00;97779.72;4960663;28;20125;-82
2022/10/15 01:28:19;;;;;;;35.75;16.70;;;;;;;10.58;100.00;97771.03;4994110;28;20041;-82
2022/10/15 01:30:48;;;;;;;35.53;16.70;;;;;;;10.57;100.00;97764.19;4975688;28;20113;-82
2022/10/15 01:33:37;;;;;;;36.47;16.70;;;;;;;10.57;100.00;97759.75;4960286;28;20554;-81
2022/10/15 01:36:21;;;;;;;39.95;16.60;;;;;;;10.58;100.00;97744.78;4954101;28;20038;-82
2022/10/15 01:38:57;;;;;;;34.70;16.27;;;;;;;10.64;100.00;97743.09;4960515;28;20034;-81
2022/10/15 01:41:38;;;;;;;30.88;15.32;;;;;;;10.64;100.00;97733.41;4959834;28;20399;-82
2022/10/15 01:44:10;;;;;;;30.63;15.32;;;;;;;10.60;100.00;97719.13;4959321;28;20117;-82
2022/10/15 01:46:44;;;;;;;33.80;15.30;;;;;;;10.63;100.00;97713.44;4960357;28;20030;-82
2022/10/15 01:49:12;;;;;;;30.80;16.00;;;;;;;10.69;100.00;97715.16;4974883;28;20030;-83
2022/10/15 01:51:40;;;;;;;30.77;15.75;;;;;;;10.72;100.00;97708.66;4960105;28;20038;-82
2022/10/15 01:54:11;;;;;;;32.40;16.02;;;;;;;10.68;100.00;97694.38;4975146;28;20030;-81
2022/10/15 01:56:38;;;;;;;32.00;17.23;;;;;;;10.65;100.00;97681.72;4975603;28;20562;-82
2022/10/15 01:59:04;;;;;;;38.53;16.50;;;;;;;10.63;100.00;97675.91;4975940;28;20052;-82
2022/10/15 02:01:30;;;;;;;34.38;16.52;;;;;;;10.73;100.00;97673.50;4959823;28;20456;-82
2022/10/15 02:03:56;;;;;;;30.75;14.45;;;;;;;10.63;100.00;97668.03;4991566;28;20023;-82
2022/10/15 02:06:37;;;;;;;29.77;14.68;;;;;;;10.58;100.00;97650.34;4975903;28;20038;-82
2022/10/15 02:09:20;;;;;;;32.78;15.30;;;;;;;10.63;100.00;97644.41;4958367;28;20396;-82
2022/10/15 02:11:57;;;;;;;25.33;13.50;;;;;;;10.73;100.00;97642.03;4975975;28;20054;-82
2022/10/15 02:14:33;;;;;;;24.45;13.23;;;;;;;10.65;100.00;97616.94;4975195;28;20066;-83
2022/10/15 02:17:07;;;;;;;24.95;13.43;;;;;;;10.68;100.00;97623.53;4975237;28;20030;-82
2022/10/15 02:19:42;;;;;;;25.15;13.45;;;;;;;10.64;100.00;97627.63;4993192;28;20507;-82
2022/10/15 02:22:15;;;;;;;26.83;13.27;;;;;;;10.56;100.00;97610.41;4992585;28;20042;-82
2022/10/15 02:24:49;;;;;;;27.67;15.13;;;;;;;10.47;100.00;97609.19;4993198;28;20099;-81
2022/10/15 02:27:16;;;;;;;27.38;13.18;;;;;;;10.61;100.00;97599.25;4992950;28;20030;-83
2022/10/15 02:29:44;;;;;;;27.02;13.60;;;;;;;10.66;100.00;97602.78;4975703;28;20439;-82
2022/10/15 02:32:12;;;;;;;30.40;16.60;;;;;;;10.71;100.00;97600.25;4975204;28;20189;-82
2022/10/15 02:34:39;;;;;;;29.23;16.95;;;;;;;10.71;100.00;97587.13;4992762;28;20031;-83
2022/10/15 02:37:07;;;;;;;31.83;16.33;;;;;;;10.73;100.00;97588.72;4992965;28;20042;-82
2022/10/15 02:39:33;;;;;;;31.30;17.02;;;;;;;10.83;100.00;97589.72;4992641;28;20388;-82
2022/10/15 02:42:00;;;;;;;30.02;16.98;;;;;;;10.85;100.00;97576.38;4975390;28;20026;-82
2022/10/15 02:44:26;;;;;;;30.02;17.75;;;;;;;10.80;100.00;97563.13;4992657;28;20031;-81
2022/10/15 02:46:51;;;;;;;31.52;16.63;;;;;;;10.94;100.00;97579.44;4958070;28;20037;-82
2022/10/15 02:49:17;;;;;;;36.25;19.30;;;;;;;10.79;100.00;97569.41;4992508;28;20041;-82
2022/10/15 02:51:43;;;;;;;30.13;16.73;;;;;;;10.95;100.00;97566.06;4975001;28;20038;-82
2022/10/15 02:54:09;;;;;;;26.23;15.80;;;;;;;10.97;100.00;97558.75;4991551;28;20065;-82
2022/10/15 02:56:34;;;;;;;31.33;17.00;;;;;;;11.04;100.00;97563.09;4959167;28;20070;-83
2022/10/15 02:59:00;;;;;;;31.83;17.13;;;;;;;11.01;100.00;97548.59;4958738;28;20531;-82
2022/10/15 03:01:26;;;;;;;37.35;19.88;;;;;;;11.00;100.00;97560.94;4992255;28;20026;-82
2022/10/15 03:03:54;;;;;;;30.15;17.65;;;;;;;11.13;100.00;97564.28;4959276;28;20089;-82
2022/10/15 03:06:20;;;;;;;34.50;18.75;;;;;;;11.11;100.00;97558.47;4974372;28;20042;-82
2022/10/15 03:08:46;;;;;;;30.75;18.38;;;;;;;11.14;100.00;97558.00;4992138;28;20514;-82
2022/10/15 03:11:11;;;;;;;31.88;17.60;;;;;;;11.14;100.00;97547.50;4974821;28;20449;-81
2022/10/15 03:13:38;;;;;;;28.00;16.35;;;;;;;11.13;100.00;97532.78;4974653;28;20026;-82
2022/10/15 03:16:08;;;;;;;24.77;15.05;;;;;;;11.19;100.00;97534.47;4992007;28;20057;-82
2022/10/15 03:18:34;;;;;;;22.73;14.23;;;;;;;11.14;100.00;97510.75;4991363;28;20453;-82
2022/10/15 03:21:00;;;;;;;25.55;15.55;;;;;;;11.12;100.00;97502.31;4971443;28;20363;-83
2022/10/15 03:23:27;;;;;;;23.70;15.13;;;;;;;11.07;100.00;97500.38;4971526;28;20056;-82
2022/10/15 03:25:53;;;;;;;23.90;15.52;;;;;;;11.14;100.00;97495.78;4955524;28;20026;-82
2022/10/15 03:28:19;;;;;;;27.25;16.05;;;;;;;11.03;100.00;97482.72;4972592;28;20477;-81
2022/10/15 03:30:45;;;;;;;28.45;16.70;;;;;;;11.06;100.00;97487.50;4971943;28;20109;-82
2022/10/15 03:33:11;;;;;;;23.95;14.57;;;;;;;11.13;100.00;97482.88;4955495;28;20077;-82
2022/10/15 03:35:38;;;;;;;25.27;15.40;;;;;;;11.11;100.00;97470.00;4955249;28;20023;-81
2022/10/15 03:38:04;;;;;;;25.92;15.07;;;;;;;11.12;100.00;97462.91;4970982;28;20042;-82
2022/10/15 03:40:30;;;;;;;24.73;15.45;;;;;;;11.15;100.00;97457.19;4972416;28;20410;-82
2022/10/15 03:43:01;;;;;;;24.52;14.65;;;;;;;11.19;100.00;97455.66;4971364;28;20473;-81
2022/10/15 03:45:27;;;;;;;24.83;14.60;;;;;;;11.16;100.00;97439.63;4972389;28;20080;-81
2022/10/15 03:47:52;;;;;;;20.83;12.60;;;;;;;11.13;100.00;97430.38;4971121;28;20039;-82
2022/10/15 03:50:18;;;;;;;19.48;11.73;;;;;;;11.26;100.00;97447.66;4972039;28;20654;-83
2022/10/15 03:52:44;;;;;;;18.88;11.38;;;;;;;11.25;100.00;97444.22;4972268;28;20134;-83
2022/10/15 03:55:10;;;;;;;18.10;10.88;;;;;;;11.19;100.00;97429.41;4971758;28;20041;-82
2022/10/15 03:57:37;;;;;;;16.40;9.95;;;;;;;11.10;100.00;97425.59;4971005;28;20039;-81
2022/10/15 04:00:06;;;;;;;14.38;8.75;;;;;;;11.15;100.00;97438.81;4954399;28;20489;-83
2022/10/15 04:02:32;;;;;;;14.85;8.95;;;;;;;11.16;100.00;97419.38;4970705;28;20420;-82
2022/10/15 04:04:58;;;;;;;15.60;8.80;;;;;;;11.13;100.00;97414.63;4971971;28;20031;-82
2022/10/15 04:07:24;;;;;;;12.05;7.85;;;;;;;11.18;100.00;97419.16;4970336;28;20492;-83
2022/10/15 04:09:49;;;;;;;10.50;7.10;;;;;;;11.24;100.00;97410.31;4970843;28;20035;-82
2022/10/15 04:12:15;;;;;;;9.43;6.45;;;;;;;11.30;100.00;97414.63;4954892;28;20030;-83
2022/10/15 04:14:41;;;;;;;11.43;6.35;;;;;;;11.14;100.00;97390.75;4954250;28;20027;-82
2022/10/15 04:17:06;;;;;;;10.77;6.25;;;;;;;11.21;100.00;97400.28;4970797;28;20073;-81
2022/10/15 04:19:32;;;;;;;12.48;6.32;;;;;;;11.33;100.00;97403.66;4970705;28;20078;-82
2022/10/15 04:21:58;;;;;;;11.73;7.05;;;;;;;11.25;100.00;97386.44;4954789;28;20038;-82
2022/10/15 04:24:24;;;;;;;9.13;6.43;;;;;;;11.22;100.00;97392.19;4970684;28;20015;-83
2022/10/15 04:26:50;;;;;;;8.80;6.38;;;;;;;11.33;100.00;97369.50;4970655;28;20490;-82
2022/10/15 04:29:16;;;;;;;9.73;6.30;;;;;;;11.38;100.00;97369.56;4970254;28;20058;-82
2022/10/15 04:31:42;;;;;;;11.45;5.75;;;;;;;11.40;100.00;97370.13;4970705;28;20066;-81
2022/10/15 04:34:08;;;;;;;7.85;4.97;;;;;;;11.30;100.00;97354.22;4970487;28;20061;-82
2022/10/15 04:36:34;;;;;;;6.68;5.10;;;;;;;11.28;100.00;97353.66;4970706;28;20059;-82
2022/10/15 04:39:00;;;;;;;7.85;5.10;;;;;;;11.39;100.00;97355.41;4970382;28;20563;-82
2022/10/15 04:41:26;;;;;;;7.72;5.97;;;;;;;11.32;100.00;97369.72;4970357;28;20089;-81
2022/10/15 04:43:52;;;;;;;8.32;5.97;;;;;;;11.29;100.00;97345.53;4970513;28;20023;-82
2022/10/15 04:46:21;;;;;;;9.38;6.20;;;;;;;11.43;100.00;97343.34;4954439;28;20461;-81
2022/10/15 04:48:46;;;;;;;7.93;5.97;;;;;;;11.32;100.00;97332.94;4970520;28;20027;-81
2022/10/15 04:51:15;;;;;;;7.30;5.53;;;;;;;11.41;100.00;97331.53;4970361;28;20093;-81
2022/10/15 04:53:41;;;;;;;8.15;5.75;;;;;;;11.39;100.00;97338.81;4969883;28;20085;-82
2022/10/15 04:56:12;;;;;;;10.57;5.40;;;;;;;11.36;100.00;97328.81;4970463;28;20031;-83
2022/10/15 04:58:39;;;;;;;9.65;6.03;;;;;;;11.32;100.00;97325.88;4954159;28;20027;-81
2022/10/15 05:01:07;;;;;;;7.00;5.43;;;;;;;11.31;100.00;97326.91;4971717;28;20085;-82
2022/10/15 05:03:34;;;;;;;6.03;4.57;;;;;;;11.16;100.00;97319.59;4970411;28;20038;-82
2022/10/15 05:06:05;;;;;;;8.73;5.05;;;;;;;11.11;100.00;97328.22;4968185;28;20109;-81
2022/10/15 05:08:32;;;;;;;5.72;4.63;;;;;;;11.03;100.00;97325.97;4970308;28;20042;-81
2022/10/15 05:11:05;;;;;;;5.90;4.55;;;;;;;11.14;100.00;97321.66;4972314;28;20031;-83
2022/10/15 05:13:31;;;;;;;7.40;4.72;;;;;;;11.18;100.00;97325.41;4974237;28;20039;-83
2022/10/15 05:16:07;;;;;;;6.40;4.80;;;;;;;11.23;100.00;97329.94;4975145;28;20034;-83
2022/10/15 05:18:32;;;;;;;6.50;4.30;;;;;;;11.23;100.00;97324.69;4973457;28;20098;-82
2022/10/15 05:21:00;;;;;;;8.40;5.00;;;;;;;11.41;100.00;97318.38;4973707;28;20047;-83
2022/10/15 05:23:26;;;;;;;7.43;5.00;;;;;;;11.45;100.00;97314.22;4975093;28;20394;-84
2022/10/15 05:25:52;;;;;;;7.60;4.95;;;;;;;11.39;100.00;97307.28;4974481;28;20027;-82
2022/10/15 05:28:18;;;;;;;5.78;4.78;;;;;;;11.53;100.00;97313.81;4973356;28;20122;-83
2022/10/15 05:30:44;;;;;;;5.55;4.10;;;;;;;11.53;100.00;97311.16;4957476;28;20114;-81
2022/10/15 05:33:10;;;;;;;5.53;4.25;;;;;;;11.35;100.00;97290.44;4957349;28;20030;-83
2022/10/15 05:35:36;;;;;;;6.30;3.78;;;;;;;11.46;100.00;97297.44;4957343;28;20038;-82
2022/10/15 05:38:03;;;;;;;6.38;4.68;;;;;;;11.43;100.00;97300.53;4973419;28;20444;-82
2022/10/15 05:40:29;;;;;;;7.20;4.55;;;;;;;11.22;100.00;97281.88;4957015;28;20030;-81
2022/10/15 05:42:55;;;;;;;6.38;4.53;;;;;;;11.25;100.00;97289.28;4973546;28;20057;-82
2022/10/15 05:45:21;;;;;;;5.88;4.40;;;;;;;11.10;100.00;97283.81;4973063;28;20105;-82
2022/10/15 05:47:46;;;;;;;7.78;4.80;;;;;;;11.06;100.00;97282.69;4973894;28;20023;-83
2022/10/15 05:50:13;;;;;;;6.05;4.25;;;;;;;11.02;100.00;97292.88;4972970;28;20050;-80
2022/10/15 05:52:38;;;;;;;6.20;4.35;;;;;;;10.86;100.00;97284.00;4957080;28;20126;-82
2022/10/15 05:55:04;;;;;;;7.68;4.38;;;;;;;10.80;100.00;97282.31;4956574;28;20038;-82
2022/10/15 05:57:29;;;;;;;6.18;4.32;;;;;;;10.67;100.00;97286.84;4974257;28;20516;-82
2022/10/15 05:59:55;;;;;;;6.65;4.88;;;;;;;10.61;100.00;97287.81;4972709;28;20469;-84
2022/10/15 06:02:21;;;;;;;9.90;5.15;;;;;;;10.49;100.00;97280.00;4972771;28;20499;-83
2022/10/15 06:04:47;;;;;;;6.30;4.30;;;;;;;10.44;100.00;97290.41;4974040;28;20060;-81
2022/10/15 06:07:14;;;;;;;10.90;4.78;;;;;;;10.48;100.00;97275.00;4972776;28;20039;-81
2022/10/15 06:09:40;;;;;;;11.38;4.82;;;;;;;10.50;100.00;97278.19;4971489;28;20110;-82
2022/10/15 06:12:05;;;;;;;5.50;3.78;;;;;;;10.39;100.00;97272.72;4972598;28;20122;-83
2022/10/15 06:14:31;;;;;;;6.53;4.20;;;;;;;10.46;100.00;97284.94;4972527;28;20039;-81
2022/10/15 06:16:56;;;;;;;7.15;4.18;;;;;;;10.39;100.00;97280.59;4974131;28;20026;-82
2022/10/15 06:19:22;;;;;;;8.68;4.20;;;;;;;10.26;100.00;97286.94;4976104;28;20038;-81
2022/10/15 06:21:47;;;;;;;6.30;4.45;;;;;;;10.23;100.00;97287.41;4992076;28;20034;-83
2022/10/15 06:24:13;;;;;;;8.40;4.47;;;;;;;10.23;100.00;97274.28;4975674;28;20026;-83
2022/10/15 06:26:39;;;;;;;6.10;3.97;;;;;;;10.14;100.00;97288.81;4973219;28;20091;-84
2022/10/15 06:29:05;;;;;;;9.55;4.22;;;;;;;10.25;100.00;97284.56;4993997;28;20109;-84
2022/10/15 06:31:30;;;;;;;8.23;3.88;;;;;;;10.12;100.00;97273.31;4976236;28;20030;-86
2022/10/15 06:33:56;;;;;;;8.00;3.38;;;;;;;10.19;100.00;97275.00;4975759;28;20045;-85
2022/10/15 06:36:23;;;;;;;7.72;3.40;;;;;;;10.14;100.00;97273.09;4975513;28;20030;-84
2022/10/15 06:38:49;;;;;;;4.70;3.08;;;;;;;10.24;100.00;97267.25;4958753;28;20046;-83
2022/10/15 06:41:15;;;;;;;6.80;3.13;;;;;;;10.25;100.00;97280.09;4959606;28;20026;-83
2022/10/15 06:43:46;;;;;;;10.80;4.95;;;;;;;10.26;100.00;97284.31;4959053;28;20100;-85
2022/10/15 06:46:15;;;;;;;5.10;3.30;;;;;;;10.33;100.00;97278.13;4976322;28;20389;-84
2022/10/15 06:48:41;;;;;;;6.28;3.75;;;;;;;10.33;100.00;97270.28;4974571;28;20496;-82
2022/10/15 06:51:10;;;;;;;6.65;4.03;;;;;;;10.37;100.00;97277.41;4992553;28;20057;-84
2022/10/15 06:53:41;;;;;;;6.28;4.05;;;;;;;10.51;100.00;97275.31;4974838;28;20026;-83
2022/10/15 06:56:06;;;;;;;12.02;4.03;;;;;;;10.60;100.00;97290.66;4958706;28;20046;-83
2022/10/15 06:58:32;;;;;;;15.40;4.90;;;;;;;10.84;100.00;97288.69;4957702;28;20034;-84
2022/10/15 07:01:02;;;;;;;10.43;4.38;;;;;;;11.10;100.00;97268.06;4974129;28;20059;-83
2022/10/15 07:03:28;;;;;;;8.55;3.90;;;;;;;11.21;100.00;97288.19;4958697;28;20054;-82
2022/10/15 07:05:54;;;;;;;7.85;4.07;;;;;;;11.18;100.00;97288.63;4974793;28;20081;-83
2022/10/15 07:08:19;;;;;;;5.00;3.50;;;;;;;11.42;100.00;97293.69;4991469;28;20026;-88
2022/10/15 07:10:46;;;;;;;6.47;3.33;;;;;;;11.39;100.00;97307.28;4960438;28;20044;-85
2022/10/15 07:13:11;;;;;;;6.97;3.13;;;;;;;11.54;100.00;97298.84;4993545;28;20451;-87
2022/10/15 07:15:37;;;;;;;6.78;3.35;;;;;;;11.62;100.00;97305.50;4993070;28;20035;-86
2022/10/15 07:18:02;;;;;;;5.35;2.80;;;;;;;11.58;100.00;97299.94;4994037;28;20073;-83
2022/10/15 07:20:29;;;;;;;5.55;3.70;;;;;;;11.64;100.00;97306.06;4975146;28;20042;-85
2022/10/15 07:22:57;;;;;;;4.13;3.00;;;;;;;11.58;100.00;97305.19;4975164;28;20027;-86
2022/10/15 07:25:23;;;;;;;6.82;3.13;;;;;;;11.55;100.00;97290.69;4975363;28;20031;-86
2022/10/15 07:27:54;;;;;;;3.67;2.75;;;;;;;11.53;100.00;97224.47;4975872;28;20393;-86
2022/10/15 07:30:21;;;;;;;6.20;2.65;;;;;;;11.22;100.00;97233.81;4976520;28;20038;-85
2022/10/15 07:32:47;;;;;;;5.75;2.17;;;;;;;11.26;100.00;97267.22;4993323;28;20026;-86
2022/10/15 07:35:13;;;;;;;5.15;2.08;;;;;;;11.32;100.00;97256.78;4960356;28;20035;-83
2022/10/15 07:37:39;;;;;;;7.47;2.00;;;;;;;11.19;100.00;97261.34;4976018;28;20125;-84
2022/10/15 07:40:05;;;;;;;4.82;1.90;;;;;;;11.19;100.00;97284.97;4993120;28;20073;-82
2022/10/15 07:42:31;;;;;;;10.65;2.13;;;;;;;11.21;100.00;97277.66;4959971;28;20026;-88
2022/10/15 07:44:57;;;;;;;7.65;2.50;;;;;;;11.24;100.00;97281.63;4975592;28;20034;-86
2022/10/15 07:47:22;;;;;;;8.40;1.70;;;;;;;11.12;100.00;97276.47;4963079;28;20026;-85
2022/10/15 07:49:48;;;;;;;8.13;1.70;;;;;;;10.82;100.00;97267.13;4995160;28;20126;-87
2022/10/15 07:52:14;;;;;;;4.00;1.60;;;;;;;11.00;100.00;97284.44;4976646;28;20030;-89
2022/10/15 07:54:40;;;;;;;7.80;1.90;;;;;;;11.07;100.00;97284.28;4960941;28;20046;-85
2022/10/15 07:57:08;;;;;;;6.55;1.60;;;;;;;11.03;100.00;97277.94;4960932;28;20023;-86
2022/10/15 07:59:34;;;;;;;7.35;1.42;;;;;;;11.05;100.00;97291.63;4976202;28;20085;-88
2022/10/15 08:02:00;;;;;;;3.03;1.50;;;;;;;11.11;100.00;97282.78;4960048;28;20057;-87
2022/10/15 08:04:26;;;;;;;6.38;1.65;;;;;;;11.20;100.00;97302.34;4959512;28;20061;-87
2022/10/15 08:06:54;;;;;;;3.47;1.63;;;;;;;10.86;100.00;97284.78;4979259;28;20049;-88
2022/10/15 08:09:20;;;;;;;2.08;1.30;;;;;;;10.78;100.00;97293.06;4981380;28;20499;-87
2022/10/15 08:11:45;;;;;;;3.47;1.50;;;;;;;10.79;100.00;97286.78;4976314;28;20030;-87
2022/10/15 08:14:14;;;;;;;2.88;1.60;;;;;;;10.62;100.00;97270.22;4979185;28;20033;-87
2022/10/15 08:16:43;;;;;;;4.72;1.60;;;;;;;10.62;100.00;97260.53;4962781;28;20041;-85
2022/10/15 08:19:08;;;;;;;3.20;1.63;;;;;;;10.90;100.00;97306.09;4979494;28;20034;-87
2022/10/15 08:21:34;;;;;;;2.83;1.40;;;;;;;10.65;100.00;97282.88;4963337;28;20724;-88
2022/10/15 08:24:00;;;;;;;6.38;2.85;;;;;;;10.93;100.00;97315.34;4975613;28;20034;-87
2022/10/15 08:26:25;;;;;;;2.67;1.58;;;;;;;10.83;100.00;97311.50;4992580;28;20465;-85
2022/10/15 08:28:51;;;;;;;6.28;1.70;;;;;;;10.71;100.00;97287.97;4975486;28;20080;-86
2022/10/15 08:31:18;;;;;;;3.58;1.55;;;;;;;10.89;100.00;97307.13;4958113;28;20484;-83
2022/10/15 08:33:44;;;;;;;4.80;1.50;;;;;;;11.01;100.00;97304.41;4991627;28;20031;-83
2022/10/15 08:36:10;;;;;;;9.75;1.80;;;;;;;10.88;100.00;97307.34;4974022;28;20493;-84
2022/10/15 08:38:36;;;;;;;3.65;1.42;;;;;;;11.02;100.00;97307.84;4990982;28;20038;-83
2022/10/15 08:41:13;;;;;;;5.07;1.70;;;;;;;11.12;100.00;97315.88;4991788;28;20491;-83
2022/10/15 08:43:41;;;;;;;5.00;1.88;;;;;;;10.86;100.00;97291.88;4956880;28;20065;-84
2022/10/15 08:46:45;;;;;;;2.97;1.50;;;;;;;11.06;100.00;97308.97;4994652;28;20481;-84
2022/10/15 08:49:34;;;;;;;4.80;1.45;;;;;;;11.31;100.00;97312.97;4961965;28;20404;-85
2022/10/15 08:52:20;;;;;;;2.30;1.52;;;;;;;11.00;100.00;97308.91;4993674;28;20112;-84
2022/10/15 08:54:46;;;;;;;5.80;1.83;;;;;;;10.94;100.00;97312.44;4976465;28;20027;-85
2022/10/15 08:57:32;;;;;;;5.07;1.63;;;;;;;10.93;100.00;97316.13;4977626;28;20034;-83
2022/10/15 09:00:04;;;;;;;4.72;1.33;;;;;;;11.05;100.00;97323.13;4976119;28;20026;-85
2022/10/15 09:02:50;;;;;;;5.37;1.50;;;;;;;11.31;100.00;97320.84;4977572;28;20042;-84
2022/10/15 09:05:31;;;;;;;8.13;1.58;;;;;;;11.32;100.00;97325.88;4961971;28;20499;-85
2022/10/15 09:08:29;;;;;;;16.13;2.45;;;;;;;11.21;100.00;97319.69;4994917;28;20034;-84
2022/10/15 09:11:14;;;;;;;6.32;2.22;;;;;;;11.36;100.00;97307.78;4976424;28;20026;-84
2022/10/15 09:13:43;;;;;;;3.97;1.63;;;;;;;11.46;100.00;97330.78;4994706;28;20164;-83
2022/10/15 09:16:16;;;;;;;6.65;1.90;;;;;;;11.33;100.00;97324.84;4962376;28;20027;-84
2022/10/15 09:18:45;;;;;;;7.00;1.95;;;;;;;11.22;100.00;97318.66;4976551;28;20154;-85
2022/10/15 09:21:12;;;;;;;4.80;1.50;;;;;;;11.13;100.00;97326.16;4993998;28;20112;-84
2022/10/15 09:23:40;;;;;;;5.00;1.42;;;;;;;11.23;100.00;97330.75;4958419;28;20049;-83
2022/10/15 09:26:18;;;;;;;6.25;1.70;;;;;;;11.34;100.00;97320.38;4960603;28;20034;-83
2022/10/15 09:29:01;;;;;;;10.02;1.42;;;;;;;11.49;100.00;97323.22;4962117;28;20033;-83
2022/10/15 09:31:41;;;;;;;3.88;1.35;;;;;;;11.42;100.00;97336.50;4993758;28;20500;-83
2022/10/15 09:34:26;;;;;;;3.42;1.30;;;;;;;11.45;100.00;97332.63;4993997;28;20381;-83
2022/10/15 09:36:57;;;;;;;7.82;1.52;;;;;;;11.49;100.00;97349.47;4975963;28;20429;-82
2022/10/15 09:39:41;;;;;;;6.22;1.40;;;;;;;11.50;100.00;97360.81;4994242;28;20084;-82
2022/10/15 09:42:29;;;;;;;15.57;2.10;;;;;;;11.48;100.00;97358.41;4976812;28;20026;-82
2022/10/15 09:45:01;;;;;;;11.80;1.88;;;;;;;11.67;100.00;97352.88;4992325;28;20073;-84
2022/10/15 09:47:30;;;;;;;4.90;1.52;;;;;;;11.38;100.00;97359.06;4993561;28;20053;-83
2022/10/15 09:49:55;;;;;;;2.25;1.08;;;;;;;10.95;100.00;97352.63;4960278;28;20528;-84
2022/10/15 09:52:46;;;;;;;10.45;1.65;;;;;;;11.19;100.00;97365.59;4960085;28;20038;-83
2022/10/15 09:55:27;;;;;;;5.45;1.40;;;;;;;11.11;100.00;97353.66;4959373;28;20113;-84
2022/10/15 09:57:58;;;;;;;3.22;1.35;;;;;;;11.01;100.00;97349.06;4975573;28;20096;-83
2022/10/15 10:00:24;;;;;;;6.95;1.88;;;;;;;11.09;100.00;97366.25;4976370;28;20037;-83
2022/10/15 10:03:13;;;;;;;5.35;1.60;;;;;;;11.11;100.00;97374.66;4976691;28;20465;-83
2022/10/15 10:05:39;;;;;;;7.45;1.65;;;;;;;11.06;100.00;97362.25;4961188;28;20492;-82
2022/10/15 10:08:30;;;;;;;10.32;1.75;;;;;;;11.13;100.00;97356.84;4995150;28;20117;-81
2022/10/15 10:11:06;;;;;;;7.15;1.20;;;;;;;11.20;100.00;97361.94;4982215;28;20050;-83
2022/10/15 10:14:27;;;;;;;8.85;1.77;;;;;;;11.18;100.00;97371.88;4978607;28;20038;-83
2022/10/15 10:17:51;;;;;;;5.53;1.57;;;;;;;11.11;100.00;97372.84;4901283;29;20090;-82
2022/10/15 10:20:34;;;;;;;11.85;2.08;;;;;;;11.22;100.00;97373.81;4919120;29;20055;-83
2022/10/15 10:23:47;;;;;;;8.10;1.45;;;;;;;11.25;100.00;97369.88;4919364;29;20040;-84
2022/10/15 10:26:14;;;;;;;9.48;1.45;;;;;;;11.19;100.00;97366.38;4906388;29;20426;-83
2022/10/15 10:29:22;;;;;;;8.98;1.90;;;;;;;11.19;100.00;97374.25;4975913;28;20117;-84
2022/10/15 10:31:50;;;;;;;7.53;2.08;;;;;;;11.35;100.00;97366.63;4959583;28;20121;-84
2022/10/15 10:34:31;;;;;;;5.28;1.65;;;;;;;11.64;100.00;97382.28;4977465;28;20026;-84
2022/10/15 10:37:02;;;;;;;5.50;1.85;;;;;;;11.40;100.00;97395.59;4994288;28;20030;-83
2022/10/15 10:39:35;;;;;;;9.70;1.80;;;;;;;11.51;100.00;97384.19;4994362;28;20031;-81
2022/10/15 10:42:12;;;;;;;15.30;3.47;;;;;;;11.74;100.00;97373.72;4977554;28;20408;-81
2022/10/15 10:44:45;;;;;;;5.05;1.27;;;;;;;11.80;100.00;97394.59;4974757;28;20030;-82
2022/10/15 10:47:18;;;;;;;11.03;2.00;;;;;;;12.17;100.00;97416.88;4959058;28;20030;-81
2022/10/15 10:49:52;;;;;;;4.45;1.65;;;;;;;12.09;100.00;97397.06;4976171;28;20034;-81
2022/10/15 10:52:31;;;;;;;8.40;1.58;;;;;;;12.01;100.00;97392.25;4959525;28;20507;-82
2022/10/15 10:55:17;;;;;;;5.82;1.35;;;;;;;12.03;100.00;97384.91;4975279;28;20031;-82
2022/10/15 10:57:52;;;;;;;5.63;1.25;;;;;;;11.99;100.00;97368.78;4975331;28;20507;-81
2022/10/15 11:00:39;;;;;;;4.57;1.20;;;;;;;11.93;100.00;97388.16;4974825;28;20076;-82
2022/10/15 11:03:16;;;;;;;5.32;1.67;;;;;;;12.05;100.00;97403.84;4992899;28;20041;-83
2022/10/15 11:05:42;;;;;;;8.45;2.20;;;;;;;11.96;100.00;97373.72;4975307;28;20499;-82
2022/10/15 11:08:30;;;;;;;7.72;1.63;;;;;;;11.92;100.00;97391.03;4992385;28;20034;-84
2022/10/15 11:11:07;;;;;;;7.93;1.50;;;;;;;11.91;100.00;97402.59;4976317;28;20037;-84
2022/10/15 11:13:43;;;;;;;9.77;1.67;;;;;;;11.93;100.00;97405.75;4960147;28;21630;-83
2022/10/15 11:16:12;;;;;;;9.20;1.83;;;;;;;12.04;100.00;97420.69;4960316;28;20400;-84
2022/10/15 11:19:02;;;;;;;4.38;1.30;;;;;;;11.96;100.00;97421.06;4976292;28;20041;-82
2022/10/15 11:21:52;;;;;;;7.38;1.63;;;;;;;12.16;100.00;97420.56;4960905;28;20046;-83
2022/10/15 11:24:34;;;;;;;6.10;1.60;;;;;;;12.16;100.00;97406.59;4957907;28;20042;-83
2022/10/15 11:27:12;;;;;;;8.90;1.70;;;;;;;12.08;100.00;97413.88;4974884;28;20385;-83
2022/10/15 11:29:53;;;;;;;5.65;1.60;;;;;;;12.33;100.00;97406.53;4959384;28;20034;-83
2022/10/15 11:32:31;;;;;;;8.48;1.77;;;;;;;12.58;100.00;97413.94;4991982;28;20030;-83
2022/10/15 11:35:38;;;;;;;5.80;1.60;;;;;;;12.35;100.00;97407.88;4973247;28;20034;-82
2022/10/15 11:38:26;;;;;;;5.35;1.58;;;;;;;12.34;100.00;97422.06;4969146;28;20046;-83